Warning: Javascript must be enabled to use all the features on this page!


Page Loading - Please Wait...

Click to hideNews Bulletins

Peak Streamflow for the Nation

USGS 11390000 BUTTE C NR CHICO CA

Butte County, California
Hydrologic Unit Code 18020158
Latitude  39°43'34", Longitude 121°42'28" NAD27
Drainage area 147  square miles
Output formats
Table
Graph
Tab-separated file
peakfq (watstore) format
Reselect output format
Water
Year
Date Gage
Height
(feet)
Stream-
flow
(cfs)
1931 1931-01-23 4.98 1,430
1932 1931-12-24 7.75 4,070
1933 1933-03-28 4.44 1,100
1934 1933-12-30 6.90 3,120
1935 1935-04-07 8.87 5,360
1936 1936-02-21 13.13 8,660
1937 1937-02-04 6.90 2,640
1938 1937-12-11 18.90 17,000
1939 1938-12-03 3.74 854
1940 1940-02-28 13.80 12,400
1941 1941-02-10 12.55 10,100
1942 1942-02-06 12.70 9,970
1943 1943-01-21 9.20 6,600
1944 1944-03-04 6.006 3,500
1945 1945-02-05 7.07 4,890
1946 1945-12-27 7.63 5,620
1947 1947-02-12 7.00 4,800
1948 1948-03-23 7.50 5,450
1949 1949-03-11 5.29 2,800
1950 1950-02-06 4.86 5,920
1951 1950-11-20 6.20 3,850
1952 1952-02-01 9.18 7,700
1953 1953-01-09 10.10 10,300
1954 1954-04-14 7.41 5,330
1955 1955-04-21 4.20 1,560
1956 1955-12-22 13.35 18,700
1957 1957-02-24 7.65 5,690
1958 1958-02-24 9.52 9,140
1959 1959-02-16 6.77 5,110
1960 1960-02-08 7.75 6,490
1961 1961-01-31 5.12 3,110
1962 1962-02-15 6.63 4,930
1963 1963-01-31 11.67 14,200
1964 1964-01-20 7.20 4,940
1965 1964-12-22 14.12 21,200
1966 1966-01-04 5.28 3,150
1967 1967-01-21 8.44 6,830
1968 1968-02-21 5.06 3,090
1969 1969-01-21 12.44 12,900
1970 1970-01-24 13.40 16,500
1971 1971-03-26 7.20 6,080
1972 1972-01-22 3.71 1,870
1973 1973-01-16 7.77 6,820
1974 1974-03-30 11.76 12,600
1975 1975-02-13 6.30 4,940
1976 1976-02-29 3.14 1,260
1977 1977-01-01 2.16 522
1978 1978-03-04 8.56 7,840
1979 1979-02-14 6.01 4,710
1980 1980-02-19 9.75 9,100
1981 1980-12-03 4.41 2,160
1982 1982-04-11 9.06 8,500
1983 1983-03-13 9.49 9,070
1984 1983-12-25 8.88 8,250
1985 1985-02-08 4.97 3,090
1986 1986-02-17 14.52 22,000
1987 1987-03-12 8.726 6,440
1988 1987-12-02 5.16 1,800
1989 1989-03-11 10.65 10,700
1990 1989-10-23 3.95 1,310
1991 1991-03-04 6.51 5,080
1992 1992-02-20 5.90 3,780
1993 1993-01-20 8.73 7,410
1994 1994-02-07 4.53 1,840
1995 1995-01-13 10.58 12,100
1996 1996-02-04 7.47 6,320
1997 1997-01-01 15.06 35,600
1998 1998-02-03 7.37 10,400
1999 1999-02-09 6.96 8,270
2000 2000-02-14 6.61 7,510
2001 2001-03-05 3.06 1,690
2002 2002-01-02 4.61 3,750
2003 2002-12-28 6.53 7,330
2004 2004-02-17 7.31 9,080
2005 2005-05-19 5.44 4,520
2006 2005-12-31 9.36 14,800
2007 2007-02-10 5.12 4,400
2008 2008-01-04 4.20 2,800
2009 2009-03-02 6.15 6,570
2010 2010-01-19 4.71 3,500
2011 2011-02-16 5.10 4,020
2012 2012-03-17 5.14 3,890
2013 2012-12-02 10.35 17,300
2014 2014-03-29 4.14 2,520
2015 2014-12-11 6.33 6,300
2016 2016-03-06 7.37 7,730
2017 2017-02-09 11.40 14,000
2018 2018-03-22 7.01 6,220
2019 2019-02-27 7.87 7,580
2020 2020-01-26   1,120
?
  Peak Gage-Height Qualification Codes.